sensor_id;sensor_type;location;lat;lon;timestamp;P1;durP1;ratioP1;P2;durP2;ratioP2
30605;SDS011;17371;51.328;3.860;2023-04-15T00:02:00;5.03;;;3.67;;
30605;SDS011;17371;51.328;3.860;2023-04-15T00:04:25;6.00;;;3.60;;
30605;SDS011;17371;51.328;3.860;2023-04-15T00:06:51;4.83;;;3.10;;
30605;SDS011;17371;51.328;3.860;2023-04-15T00:09:17;5.40;;;3.60;;
30605;SDS011;17371;51.328;3.860;2023-04-15T00:11:42;5.17;;;3.00;;
30605;SDS011;17371;51.328;3.860;2023-04-15T00:14:09;5.53;;;3.50;;
30605;SDS011;17371;51.328;3.860;2023-04-15T00:16:34;5.30;;;3.47;;
30605;SDS011;17371;51.328;3.860;2023-04-15T00:19:00;4.33;;;3.20;;
30605;SDS011;17371;51.328;3.860;2023-04-15T00:21:25;5.03;;;3.20;;
30605;SDS011;17371;51.328;3.860;2023-04-15T00:23:50;4.55;;;3.38;;
30605;SDS011;17371;51.328;3.860;2023-04-15T00:26:16;5.93;;;3.33;;
30605;SDS011;17371;51.328;3.860;2023-04-15T00:28:41;4.80;;;2.90;;
30605;SDS011;17371;51.328;3.860;2023-04-15T00:31:08;4.30;;;2.83;;
30605;SDS011;17371;51.328;3.860;2023-04-15T00:33:33;8.07;;;3.38;;
30605;SDS011;17371;51.328;3.860;2023-04-15T00:35:59;6.00;;;3.50;;
30605;SDS011;17371;51.328;3.860;2023-04-15T00:38:24;5.53;;;3.23;;
30605;SDS011;17371;51.328;3.860;2023-04-15T00:40:49;4.90;;;2.93;;
30605;SDS011;17371;51.328;3.860;2023-04-15T00:43:15;4.43;;;2.58;;
30605;SDS011;17371;51.328;3.860;2023-04-15T00:45:40;6.55;;;2.53;;
30605;SDS011;17371;51.328;3.860;2023-04-15T00:48:07;4.60;;;2.50;;
30605;SDS011;17371;51.328;3.860;2023-04-15T00:50:32;5.53;;;2.80;;
30605;SDS011;17371;51.328;3.860;2023-04-15T00:52:58;9.13;;;3.23;;
30605;SDS011;17371;51.328;3.860;2023-04-15T00:55:23;5.57;;;3.40;;
30605;SDS011;17371;51.328;3.860;2023-04-15T00:57:49;6.13;;;2.90;;
30605;SDS011;17371;51.328;3.860;2023-04-15T01:00:14;8.05;;;3.20;;
30605;SDS011;17371;51.328;3.860;2023-04-15T01:02:40;5.57;;;3.53;;
30605;SDS011;17371;51.328;3.860;2023-04-15T01:05:07;8.43;;;3.90;;
30605;SDS011;17371;51.328;3.860;2023-04-15T01:07:32;6.28;;;3.70;;
30605;SDS011;17371;51.328;3.860;2023-04-15T01:09:58;7.33;;;4.07;;
30605;SDS011;17371;51.328;3.860;2023-04-15T01:12:23;6.70;;;4.03;;
30605;SDS011;17371;51.328;3.860;2023-04-15T01:14:50;7.80;;;4.30;;
30605;SDS011;17371;51.328;3.860;2023-04-15T01:17:16;8.70;;;4.25;;
30605;SDS011;17371;51.328;3.860;2023-04-15T01:19:42;5.97;;;3.90;;
30605;SDS011;17371;51.328;3.860;2023-04-15T01:22:09;7.53;;;4.03;;
30605;SDS011;17371;51.328;3.860;2023-04-15T01:24:34;7.10;;;3.83;;
30605;SDS011;17371;51.328;3.860;2023-04-15T01:27:02;5.45;;;3.83;;
30605;SDS011;17371;51.328;3.860;2023-04-15T01:29:28;5.00;;;3.88;;
30605;SDS011;17371;51.328;3.860;2023-04-15T01:31:54;5.70;;;3.60;;
30605;SDS011;17371;51.328;3.860;2023-04-15T01:34:20;5.40;;;3.97;;
30605;SDS011;17371;51.328;3.860;2023-04-15T01:36:45;8.23;;;4.03;;
30605;SDS011;17371;51.328;3.860;2023-04-15T01:39:11;6.37;;;4.43;;
30605;SDS011;17371;51.328;3.860;2023-04-15T01:41:36;6.83;;;4.30;;
30605;SDS011;17371;51.328;3.860;2023-04-15T01:44:03;6.77;;;4.20;;
30605;SDS011;17371;51.328;3.860;2023-04-15T01:46:29;7.25;;;4.63;;
30605;SDS011;17371;51.328;3.860;2023-04-15T01:48:54;7.43;;;4.20;;
30605;SDS011;17371;51.328;3.860;2023-04-15T01:51:19;7.07;;;4.40;;
30605;SDS011;17371;51.328;3.860;2023-04-15T01:53:45;6.13;;;4.30;;
30605;SDS011;17371;51.328;3.860;2023-04-15T01:56:10;7.72;;;4.80;;
30605;SDS011;17371;51.328;3.860;2023-04-15T01:58:35;8.57;;;5.17;;
30605;SDS011;17371;51.328;3.860;2023-04-15T02:01:02;7.43;;;5.07;;
30605;SDS011;17371;51.328;3.860;2023-04-15T02:03:28;6.95;;;4.82;;
30605;SDS011;17371;51.328;3.860;2023-04-15T02:05:53;9.80;;;5.63;;
30605;SDS011;17371;51.328;3.860;2023-04-15T02:08:18;7.33;;;5.30;;
30605;SDS011;17371;51.328;3.860;2023-04-15T02:10:44;7.63;;;5.97;;
30605;SDS011;17371;51.328;3.860;2023-04-15T02:13:09;7.70;;;5.30;;
30605;SDS011;17371;51.328;3.860;2023-04-15T02:15:35;7.90;;;4.35;;
30605;SDS011;17371;51.328;3.860;2023-04-15T02:18:01;7.57;;;4.22;;
30605;SDS011;17371;51.328;3.860;2023-04-15T02:20:27;6.40;;;4.50;;
30605;SDS011;17371;51.328;3.860;2023-04-15T02:22:52;4.88;;;3.88;;
30605;SDS011;17371;51.328;3.860;2023-04-15T02:25:18;6.60;;;3.80;;
30605;SDS011;17371;51.328;3.860;2023-04-15T02:27:43;6.40;;;4.13;;
30605;SDS011;17371;51.328;3.860;2023-04-15T02:30:08;9.20;;;4.83;;
30605;SDS011;17371;51.328;3.860;2023-04-15T02:32:34;6.97;;;4.30;;
30605;SDS011;17371;51.328;3.860;2023-04-15T02:35:02;6.50;;;3.80;;
30605;SDS011;17371;51.328;3.860;2023-04-15T02:37:28;7.45;;;4.30;;
30605;SDS011;17371;51.328;3.860;2023-04-15T02:39:53;8.27;;;4.30;;
30605;SDS011;17371;51.328;3.860;2023-04-15T02:42:19;8.33;;;4.60;;
30605;SDS011;17371;51.328;3.860;2023-04-15T02:44:44;6.63;;;4.87;;
30605;SDS011;17371;51.328;3.860;2023-04-15T02:47:09;5.27;;;3.20;;
30605;SDS011;17371;51.328;3.860;2023-04-15T02:49:35;6.78;;;4.47;;
30605;SDS011;17371;51.328;3.860;2023-04-15T02:52:01;8.40;;;4.45;;
30605;SDS011;17371;51.328;3.860;2023-04-15T02:54:27;9.67;;;4.60;;
30605;SDS011;17371;51.328;3.860;2023-04-15T02:56:52;7.38;;;5.05;;
30605;SDS011;17371;51.328;3.860;2023-04-15T02:59:18;9.87;;;6.07;;
30605;SDS011;17371;51.328;3.860;2023-04-15T03:01:43;9.27;;;5.00;;
30605;SDS011;17371;51.328;3.860;2023-04-15T03:04:08;9.13;;;5.50;;
30605;SDS011;17371;51.328;3.860;2023-04-15T03:06:34;8.50;;;6.00;;
30605;SDS011;17371;51.328;3.860;2023-04-15T03:09:00;12.13;;;5.80;;
30605;SDS011;17371;51.328;3.860;2023-04-15T03:11:26;11.68;;;5.78;;
30605;SDS011;17371;51.328;3.860;2023-04-15T03:13:52;12.15;;;5.82;;
30605;SDS011;17371;51.328;3.860;2023-04-15T03:16:17;9.87;;;4.37;;
30605;SDS011;17371;51.328;3.860;2023-04-15T03:18:42;10.27;;;6.50;;
30605;SDS011;17371;51.328;3.860;2023-04-15T03:21:08;12.97;;;6.70;;
30605;SDS011;17371;51.328;3.860;2023-04-15T03:23:33;12.73;;;6.53;;
30605;SDS011;17371;51.328;3.860;2023-04-15T03:26:01;15.97;;;7.33;;
30605;SDS011;17371;51.328;3.860;2023-04-15T03:28:27;11.13;;;6.57;;
30605;SDS011;17371;51.328;3.860;2023-04-15T03:30:53;12.80;;;7.27;;
30605;SDS011;17371;51.328;3.860;2023-04-15T03:33:18;12.20;;;6.80;;
30605;SDS011;17371;51.328;3.860;2023-04-15T03:35:43;10.82;;;6.90;;
30605;SDS011;17371;51.328;3.860;2023-04-15T03:38:09;14.00;;;7.17;;
30605;SDS011;17371;51.328;3.860;2023-04-15T03:40:34;12.13;;;7.10;;
30605;SDS011;17371;51.328;3.860;2023-04-15T03:43:01;16.13;;;8.40;;
30605;SDS011;17371;51.328;3.860;2023-04-15T03:45:26;14.82;;;7.75;;
30605;SDS011;17371;51.328;3.860;2023-04-15T03:47:52;18.60;;;8.80;;
30605;SDS011;17371;51.328;3.860;2023-04-15T03:50:17;20.87;;;9.10;;
30605;SDS011;17371;51.328;3.860;2023-04-15T03:52:42;17.20;;;9.03;;
30605;SDS011;17371;51.328;3.860;2023-04-15T03:55:08;14.45;;;7.53;;
30605;SDS011;17371;51.328;3.860;2023-04-15T03:57:33;19.53;;;8.90;;
30605;SDS011;17371;51.328;3.860;2023-04-15T04:00:00;17.73;;;9.03;;
30605;SDS011;17371;51.328;3.860;2023-04-15T04:02:26;15.68;;;9.20;;
30605;SDS011;17371;51.328;3.860;2023-04-15T04:04:51;15.27;;;8.90;;
30605;SDS011;17371;51.328;3.860;2023-04-15T04:07:16;13.90;;;8.53;;
30605;SDS011;17371;51.328;3.860;2023-04-15T04:09:42;13.68;;;8.88;;
30605;SDS011;17371;51.328;3.860;2023-04-15T04:12:08;15.80;;;8.50;;
30605;SDS011;17371;51.328;3.860;2023-04-15T04:14:33;15.53;;;7.77;;
30605;SDS011;17371;51.328;3.860;2023-04-15T04:17:00;14.87;;;8.13;;
30605;SDS011;17371;51.328;3.860;2023-04-15T04:19:25;13.80;;;7.75;;
30605;SDS011;17371;51.328;3.860;2023-04-15T04:21:50;18.37;;;8.20;;
30605;SDS011;17371;51.328;3.860;2023-04-15T04:24:16;13.70;;;8.02;;
30605;SDS011;17371;51.328;3.860;2023-04-15T04:26:41;14.17;;;8.17;;
30605;SDS011;17371;51.328;3.860;2023-04-15T04:29:07;15.97;;;8.10;;
30605;SDS011;17371;51.328;3.860;2023-04-15T04:31:32;19.37;;;8.30;;
30605;SDS011;17371;51.328;3.860;2023-04-15T04:33:59;13.23;;;8.07;;
30605;SDS011;17371;51.328;3.860;2023-04-15T04:36:24;14.63;;;7.95;;
30605;SDS011;17371;51.328;3.860;2023-04-15T04:38:50;16.20;;;7.60;;
30605;SDS011;17371;51.328;3.860;2023-04-15T04:41:15;12.17;;;7.77;;
30605;SDS011;17371;51.328;3.860;2023-04-15T04:43:40;11.97;;;7.10;;
30605;SDS011;17371;51.328;3.860;2023-04-15T04:46:06;10.18;;;6.65;;
30605;SDS011;17371;51.328;3.860;2023-04-15T04:48:31;12.13;;;7.03;;
30605;SDS011;17371;51.328;3.860;2023-04-15T04:50:58;10.73;;;6.40;;
30605;SDS011;17371;51.328;3.860;2023-04-15T04:53:23;10.90;;;6.18;;
30605;SDS011;17371;51.328;3.860;2023-04-15T04:55:48;9.83;;;5.30;;
30605;SDS011;17371;51.328;3.860;2023-04-15T04:58:14;12.63;;;5.90;;
30605;SDS011;17371;51.328;3.860;2023-04-15T05:00:39;9.73;;;5.43;;
30605;SDS011;17371;51.328;3.860;2023-04-15T05:03:05;9.33;;;6.30;;
30605;SDS011;17371;51.328;3.860;2023-04-15T05:05:30;8.73;;;4.83;;
30605;SDS011;17371;51.328;3.860;2023-04-15T05:07:57;10.95;;;5.72;;
30605;SDS011;17371;51.328;3.860;2023-04-15T05:10:22;10.18;;;4.28;;
30605;SDS011;17371;51.328;3.860;2023-04-15T05:12:48;7.37;;;3.70;;
30605;SDS011;17371;51.328;3.860;2023-04-15T05:15:13;7.15;;;3.72;;
30605;SDS011;17371;51.328;3.860;2023-04-15T05:17:38;5.55;;;3.78;;
30605;SDS011;17371;51.328;3.860;2023-04-15T05:20:04;10.90;;;3.73;;
30605;SDS011;17371;51.328;3.860;2023-04-15T05:22:30;8.07;;;4.67;;
30605;SDS011;17371;51.328;3.860;2023-04-15T05:24:57;6.38;;;4.05;;
30605;SDS011;17371;51.328;3.860;2023-04-15T05:27:22;4.57;;;3.63;;
30605;SDS011;17371;51.328;3.860;2023-04-15T05:29:48;10.02;;;4.47;;
30605;SDS011;17371;51.328;3.860;2023-04-15T05:32:13;9.77;;;5.27;;
30605;SDS011;17371;51.328;3.860;2023-04-15T05:34:38;17.17;;;6.67;;
30605;SDS011;17371;51.328;3.860;2023-04-15T05:37:04;14.53;;;7.87;;
30605;SDS011;17371;51.328;3.860;2023-04-15T05:39:29;12.80;;;6.33;;
30605;SDS011;17371;51.328;3.860;2023-04-15T05:41:56;10.15;;;6.18;;
30605;SDS011;17371;51.328;3.860;2023-04-15T05:44:21;8.98;;;5.57;;
30605;SDS011;17371;51.328;3.860;2023-04-15T05:46:47;16.63;;;7.80;;
30605;SDS011;17371;51.328;3.860;2023-04-15T05:49:12;12.90;;;7.20;;
30605;SDS011;17371;51.328;3.860;2023-04-15T05:51:37;17.38;;;8.73;;
30605;SDS011;17371;51.328;3.860;2023-04-15T05:54:03;9.50;;;5.50;;
30605;SDS011;17371;51.328;3.860;2023-04-15T05:56:28;9.60;;;4.67;;
30605;SDS011;17371;51.328;3.860;2023-04-15T05:58:55;6.83;;;4.83;;
30605;SDS011;17371;51.328;3.860;2023-04-15T06:01:20;13.20;;;7.00;;
30605;SDS011;17371;51.328;3.860;2023-04-15T06:03:45;10.33;;;6.60;;
30605;SDS011;17371;51.328;3.860;2023-04-15T06:06:11;17.40;;;8.93;;
30605;SDS011;17371;51.328;3.860;2023-04-15T06:08:36;19.40;;;9.97;;
30605;SDS011;17371;51.328;3.860;2023-04-15T06:11:02;19.38;;;10.77;;
30605;SDS011;17371;51.328;3.860;2023-04-15T06:13:27;19.00;;;11.45;;
30605;SDS011;17371;51.328;3.860;2023-04-15T06:15:54;21.50;;;11.77;;
30605;SDS011;17371;51.328;3.860;2023-04-15T06:18:19;19.80;;;12.32;;
30605;SDS011;17371;51.328;3.860;2023-04-15T06:20:45;22.03;;;12.20;;
30605;SDS011;17371;51.328;3.860;2023-04-15T06:23:10;18.67;;;11.43;;
30605;SDS011;17371;51.328;3.860;2023-04-15T06:25:36;22.83;;;13.10;;
30605;SDS011;17371;51.328;3.860;2023-04-15T06:28:01;19.80;;;12.80;;
30605;SDS011;17371;51.328;3.860;2023-04-15T06:30:26;19.53;;;10.43;;
30605;SDS011;17371;51.328;3.860;2023-04-15T06:32:53;21.87;;;12.37;;
30605;SDS011;17371;51.328;3.860;2023-04-15T06:35:19;18.25;;;11.77;;
30605;SDS011;17371;51.328;3.860;2023-04-15T06:37:44;20.70;;;12.87;;
30605;SDS011;17371;51.328;3.860;2023-04-15T06:40:10;21.87;;;13.30;;
30605;SDS011;17371;51.328;3.860;2023-04-15T06:42:36;19.95;;;11.95;;
30605;SDS011;17371;51.328;3.860;2023-04-15T06:45:01;17.10;;;10.50;;
30605;SDS011;17371;51.328;3.860;2023-04-15T06:47:27;19.77;;;12.52;;
30605;SDS011;17371;51.328;3.860;2023-04-15T06:49:54;18.00;;;10.87;;
30605;SDS011;17371;51.328;3.860;2023-04-15T06:52:19;17.15;;;11.80;;
30605;SDS011;17371;51.328;3.860;2023-04-15T06:54:44;15.20;;;9.27;;
30605;SDS011;17371;51.328;3.860;2023-04-15T06:57:10;19.07;;;11.00;;
30605;SDS011;17371;51.328;3.860;2023-04-15T06:59:35;17.67;;;11.57;;
30605;SDS011;17371;51.328;3.860;2023-04-15T07:02:01;17.60;;;11.93;;
30605;SDS011;17371;51.328;3.860;2023-04-15T07:04:26;19.00;;;11.17;;
30605;SDS011;17371;51.328;3.860;2023-04-15T07:06:53;23.13;;;11.70;;
30605;SDS011;17371;51.328;3.860;2023-04-15T07:09:18;56.30;;;13.53;;
30605;SDS011;17371;51.328;3.860;2023-04-15T07:11:43;75.63;;;14.57;;
30605;SDS011;17371;51.328;3.860;2023-04-15T07:14:09;21.23;;;12.33;;
30605;SDS011;17371;51.328;3.860;2023-04-15T07:16:34;20.03;;;12.13;;
30605;SDS011;17371;51.328;3.860;2023-04-15T07:19:00;16.70;;;10.53;;
30605;SDS011;17371;51.328;3.860;2023-04-15T07:21:25;17.63;;;9.77;;
30605;SDS011;17371;51.328;3.860;2023-04-15T07:23:52;15.63;;;9.43;;
30605;SDS011;17371;51.328;3.860;2023-04-15T07:26:17;20.83;;;10.88;;
30605;SDS011;17371;51.328;3.860;2023-04-15T07:28:43;51.50;;;14.07;;
30605;SDS011;17371;51.328;3.860;2023-04-15T07:31:08;19.20;;;10.52;;
30605;SDS011;17371;51.328;3.860;2023-04-15T07:33:33;17.57;;;10.43;;
30605;SDS011;17371;51.328;3.860;2023-04-15T07:35:59;17.47;;;9.17;;
30605;SDS011;17371;51.328;3.860;2023-04-15T07:38:24;19.60;;;9.37;;
30605;SDS011;17371;51.328;3.860;2023-04-15T07:40:51;13.50;;;8.13;;
30605;SDS011;17371;51.328;3.860;2023-04-15T07:43:16;18.48;;;11.25;;
30605;SDS011;17371;51.328;3.860;2023-04-15T07:45:42;17.07;;;10.83;;
30605;SDS011;17371;51.328;3.860;2023-04-15T07:48:07;17.77;;;10.65;;
30605;SDS011;17371;51.328;3.860;2023-04-15T07:50:33;14.95;;;9.90;;
30605;SDS011;17371;51.328;3.860;2023-04-15T07:52:58;18.63;;;12.03;;
30605;SDS011;17371;51.328;3.860;2023-04-15T07:55:23;17.60;;;9.93;;
30605;SDS011;17371;51.328;3.860;2023-04-15T07:57:50;18.90;;;11.30;;
30605;SDS011;17371;51.328;3.860;2023-04-15T08:00:16;19.25;;;11.02;;
30605;SDS011;17371;51.328;3.860;2023-04-15T08:02:41;18.47;;;11.50;;
30605;SDS011;17371;51.328;3.860;2023-04-15T08:05:07;19.25;;;11.95;;
30605;SDS011;17371;51.328;3.860;2023-04-15T08:07:33;17.23;;;10.75;;
30605;SDS011;17371;51.328;3.860;2023-04-15T08:09:59;19.60;;;11.57;;
30605;SDS011;17371;51.328;3.860;2023-04-15T08:12:24;15.50;;;9.97;;
30605;SDS011;17371;51.328;3.860;2023-04-15T08:14:51;20.97;;;11.93;;
30605;SDS011;17371;51.328;3.860;2023-04-15T08:17:16;18.42;;;9.90;;
30605;SDS011;17371;51.328;3.860;2023-04-15T08:19:41;13.37;;;9.23;;
30605;SDS011;17371;51.328;3.860;2023-04-15T08:22:07;19.08;;;9.93;;
30605;SDS011;17371;51.328;3.860;2023-04-15T08:24:32;17.38;;;10.93;;
30605;SDS011;17371;51.328;3.860;2023-04-15T08:26:58;18.70;;;9.63;;
30605;SDS011;17371;51.328;3.860;2023-04-15T08:29:23;16.27;;;9.07;;
30605;SDS011;17371;51.328;3.860;2023-04-15T08:31:50;16.77;;;11.90;;
30605;SDS011;17371;51.328;3.860;2023-04-15T08:34:15;17.58;;;11.43;;
30605;SDS011;17371;51.328;3.860;2023-04-15T08:36:41;17.00;;;10.10;;
30605;SDS011;17371;51.328;3.860;2023-04-15T08:39:06;16.60;;;10.38;;
30605;SDS011;17371;51.328;3.860;2023-04-15T08:41:33;18.83;;;10.77;;
30605;SDS011;17371;51.328;3.860;2023-04-15T08:44:02;23.80;;;11.43;;
30605;SDS011;17371;51.328;3.860;2023-04-15T08:46:28;14.20;;;8.45;;
30605;SDS011;17371;51.328;3.860;2023-04-15T08:48:56;17.17;;;9.70;;
30605;SDS011;17371;51.328;3.860;2023-04-15T08:51:22;10.27;;;7.10;;
30605;SDS011;17371;51.328;3.860;2023-04-15T08:53:48;15.20;;;8.90;;
30605;SDS011;17371;51.328;3.860;2023-04-15T08:56:14;12.83;;;9.13;;
30605;SDS011;17371;51.328;3.860;2023-04-15T08:58:40;16.75;;;9.30;;
30605;SDS011;17371;51.328;3.860;2023-04-15T09:01:05;11.20;;;7.63;;
30605;SDS011;17371;51.328;3.860;2023-04-15T09:03:31;16.63;;;9.57;;
30605;SDS011;17371;51.328;3.860;2023-04-15T09:05:58;14.13;;;8.85;;
30605;SDS011;17371;51.328;3.860;2023-04-15T09:08:23;13.43;;;7.97;;
30605;SDS011;17371;51.328;3.860;2023-04-15T09:10:49;13.37;;;8.80;;
30605;SDS011;17371;51.328;3.860;2023-04-15T09:13:14;15.53;;;8.43;;
30605;SDS011;17371;51.328;3.860;2023-04-15T09:15:39;14.30;;;8.50;;
30605;SDS011;17371;51.328;3.860;2023-04-15T09:18:05;13.07;;;6.93;;
30605;SDS011;17371;51.328;3.860;2023-04-15T09:20:30;10.25;;;6.15;;
30605;SDS011;17371;51.328;3.860;2023-04-15T09:23:10;13.43;;;7.22;;
30605;SDS011;17371;51.328;3.860;2023-04-15T09:25:36;9.57;;;6.50;;
30605;SDS011;17371;51.328;3.860;2023-04-15T09:28:02;11.18;;;6.47;;
30605;SDS011;17371;51.328;3.860;2023-04-15T09:30:27;9.90;;;6.97;;
30605;SDS011;17371;51.328;3.860;2023-04-15T09:32:54;10.35;;;7.13;;
30605;SDS011;17371;51.328;3.860;2023-04-15T09:35:20;11.38;;;7.53;;
30605;SDS011;17371;51.328;3.860;2023-04-15T09:37:46;12.13;;;7.55;;
30605;SDS011;17371;51.328;3.860;2023-04-15T09:40:13;12.60;;;6.93;;
30605;SDS011;17371;51.328;3.860;2023-04-15T09:42:52;12.38;;;7.35;;
30605;SDS011;17371;51.328;3.860;2023-04-15T09:45:18;9.80;;;5.97;;
30605;SDS011;17371;51.328;3.860;2023-04-15T09:47:44;13.00;;;7.65;;
30605;SDS011;17371;51.328;3.860;2023-04-15T09:50:10;10.77;;;6.37;;
30605;SDS011;17371;51.328;3.860;2023-04-15T09:52:39;12.05;;;7.68;;
30605;SDS011;17371;51.328;3.860;2023-04-15T09:55:05;15.33;;;6.17;;
30605;SDS011;17371;51.328;3.860;2023-04-15T09:57:33;13.05;;;7.13;;
30605;SDS011;17371;51.328;3.860;2023-04-15T10:00:00;13.68;;;7.15;;
30605;SDS011;17371;51.328;3.860;2023-04-15T10:02:25;11.27;;;6.10;;
30605;SDS011;17371;51.328;3.860;2023-04-15T10:04:51;12.52;;;6.07;;
30605;SDS011;17371;51.328;3.860;2023-04-15T10:07:16;9.53;;;4.90;;
30605;SDS011;17371;51.328;3.860;2023-04-15T10:09:42;9.27;;;6.60;;
30605;SDS011;17371;51.328;3.860;2023-04-15T10:12:08;9.38;;;5.78;;
30605;SDS011;17371;51.328;3.860;2023-04-15T10:14:35;10.30;;;6.45;;
30605;SDS011;17371;51.328;3.860;2023-04-15T10:17:02;15.13;;;7.37;;
30605;SDS011;17371;51.328;3.860;2023-04-15T10:19:30;10.10;;;6.20;;
30605;SDS011;17371;51.328;3.860;2023-04-15T10:21:56;13.88;;;6.30;;
30605;SDS011;17371;51.328;3.860;2023-04-15T10:24:22;9.82;;;5.22;;
30605;SDS011;17371;51.328;3.860;2023-04-15T10:26:48;10.10;;;5.88;;
30605;SDS011;17371;51.328;3.860;2023-04-15T10:29:14;10.00;;;6.40;;
30605;SDS011;17371;51.328;3.860;2023-04-15T10:31:41;13.75;;;7.35;;
30605;SDS011;17371;51.328;3.860;2023-04-15T10:34:06;9.80;;;6.03;;
30605;SDS011;17371;51.328;3.860;2023-04-15T10:36:32;11.30;;;6.00;;
30605;SDS011;17371;51.328;3.860;2023-04-15T10:38:57;10.63;;;5.93;;
30605;SDS011;17371;51.328;3.860;2023-04-15T10:41:24;10.10;;;6.83;;
30605;SDS011;17371;51.328;3.860;2023-04-15T10:43:51;11.27;;;6.78;;
30605;SDS011;17371;51.328;3.860;2023-04-15T10:46:18;10.07;;;6.43;;
30605;SDS011;17371;51.328;3.860;2023-04-15T10:48:50;8.32;;;5.32;;
30605;SDS011;17371;51.328;3.860;2023-04-15T10:51:16;12.02;;;7.35;;
30605;SDS011;17371;51.328;3.860;2023-04-15T10:53:53;13.40;;;6.53;;
30605;SDS011;17371;51.328;3.860;2023-04-15T10:56:20;12.38;;;8.13;;
30605;SDS011;17371;51.328;3.860;2023-04-15T10:58:45;13.90;;;8.43;;
30605;SDS011;17371;51.328;3.860;2023-04-15T11:01:11;12.38;;;7.95;;
30605;SDS011;17371;51.328;3.860;2023-04-15T11:03:37;12.40;;;7.30;;
30605;SDS011;17371;51.328;3.860;2023-04-15T11:06:05;9.80;;;5.72;;
30605;SDS011;17371;51.328;3.860;2023-04-15T11:11:18;8.73;;;5.00;;
30605;SDS011;17371;51.328;3.860;2023-04-15T11:13:47;14.20;;;6.70;;
30605;SDS011;17371;51.328;3.860;2023-04-15T11:16:13;10.07;;;5.90;;
30605;SDS011;17371;51.328;3.860;2023-04-15T11:18:38;11.90;;;6.83;;
30605;SDS011;17371;51.328;3.860;2023-04-15T11:21:07;12.55;;;6.80;;
30605;SDS011;17371;51.328;3.860;2023-04-15T11:23:33;11.03;;;6.97;;
30605;SDS011;17371;51.328;3.860;2023-04-15T11:26:01;9.70;;;6.28;;
30605;SDS011;17371;51.328;3.860;2023-04-15T11:28:29;11.05;;;6.22;;
30605;SDS011;17371;51.328;3.860;2023-04-15T11:30:55;10.25;;;5.68;;
30605;SDS011;17371;51.328;3.860;2023-04-15T11:33:21;8.87;;;5.33;;
30605;SDS011;17371;51.328;3.860;2023-04-15T11:35:47;9.30;;;5.00;;
30605;SDS011;17371;51.328;3.860;2023-04-15T11:38:14;8.93;;;4.97;;
30605;SDS011;17371;51.328;3.860;2023-04-15T11:40:40;6.43;;;4.38;;
30605;SDS011;17371;51.328;3.860;2023-04-15T11:43:06;7.85;;;4.40;;
30605;SDS011;17371;51.328;3.860;2023-04-15T11:45:33;12.13;;;5.25;;
30605;SDS011;17371;51.328;3.860;2023-04-15T11:48:05;7.50;;;4.53;;
30605;SDS011;17371;51.328;3.860;2023-04-15T11:50:31;7.85;;;4.75;;
30605;SDS011;17371;51.328;3.860;2023-04-15T11:52:57;9.67;;;4.83;;
30605;SDS011;17371;51.328;3.860;2023-04-15T11:55:25;9.18;;;5.35;;
30605;SDS011;17371;51.328;3.860;2023-04-15T11:58:04;7.97;;;4.70;;
30605;SDS011;17371;51.328;3.860;2023-04-15T12:00:30;7.63;;;4.63;;
30605;SDS011;17371;51.328;3.860;2023-04-15T12:03:10;9.53;;;5.53;;
30605;SDS011;17371;51.328;3.860;2023-04-15T12:05:35;6.95;;;4.75;;
30605;SDS011;17371;51.328;3.860;2023-04-15T12:08:01;7.57;;;4.43;;
30605;SDS011;17371;51.328;3.860;2023-04-15T12:10:30;8.53;;;5.33;;
30605;SDS011;17371;51.328;3.860;2023-04-15T12:12:55;8.50;;;4.43;;
30605;SDS011;17371;51.328;3.860;2023-04-15T12:15:21;7.50;;;4.43;;
30605;SDS011;17371;51.328;3.860;2023-04-15T12:17:46;5.93;;;3.70;;
30605;SDS011;17371;51.328;3.860;2023-04-15T12:20:11;5.93;;;3.40;;
30605;SDS011;17371;51.328;3.860;2023-04-15T12:22:37;8.60;;;4.05;;
30605;SDS011;17371;51.328;3.860;2023-04-15T12:25:02;8.17;;;4.03;;
30605;SDS011;17371;51.328;3.860;2023-04-15T12:27:30;6.95;;;3.78;;
30605;SDS011;17371;51.328;3.860;2023-04-15T12:30:02;8.63;;;4.17;;
30605;SDS011;17371;51.328;3.860;2023-04-15T12:32:28;8.18;;;3.83;;
30605;SDS011;17371;51.328;3.860;2023-04-15T12:34:53;8.27;;;3.97;;
30605;SDS011;17371;51.328;3.860;2023-04-15T12:37:18;5.93;;;3.20;;
30605;SDS011;17371;51.328;3.860;2023-04-15T12:39:46;8.55;;;3.70;;
30605;SDS011;17371;51.328;3.860;2023-04-15T12:42:13;6.32;;;3.20;;
30605;SDS011;17371;51.328;3.860;2023-04-15T12:44:40;5.90;;;3.27;;
30605;SDS011;17371;51.328;3.860;2023-04-15T12:47:06;4.63;;;2.67;;
30605;SDS011;17371;51.328;3.860;2023-04-15T12:49:32;8.02;;;3.20;;
30605;SDS011;17371;51.328;3.860;2023-04-15T12:51:57;6.10;;;3.40;;
30605;SDS011;17371;51.328;3.860;2023-04-15T12:54:23;8.23;;;3.42;;
30605;SDS011;17371;51.328;3.860;2023-04-15T12:56:49;6.50;;;3.83;;
30605;SDS011;17371;51.328;3.860;2023-04-15T12:59:14;8.27;;;5.28;;
30605;SDS011;17371;51.328;3.860;2023-04-15T13:01:42;9.60;;;5.33;;
30605;SDS011;17371;51.328;3.860;2023-04-15T13:04:07;9.75;;;5.45;;
30605;SDS011;17371;51.328;3.860;2023-04-15T13:06:33;13.07;;;6.20;;
30605;SDS011;17371;51.328;3.860;2023-04-15T13:08:58;9.45;;;5.13;;
30605;SDS011;17371;51.328;3.860;2023-04-15T13:11:23;16.87;;;5.93;;
30605;SDS011;17371;51.328;3.860;2023-04-15T13:13:49;11.23;;;5.60;;
30605;SDS011;17371;51.328;3.860;2023-04-15T13:16:14;12.73;;;6.33;;
30605;SDS011;17371;51.328;3.860;2023-04-15T13:18:41;11.20;;;5.03;;
30605;SDS011;17371;51.328;3.860;2023-04-15T13:21:06;10.18;;;5.32;;
30605;SDS011;17371;51.328;3.860;2023-04-15T13:23:32;11.40;;;4.83;;
30605;SDS011;17371;51.328;3.860;2023-04-15T13:25:57;9.20;;;4.80;;
30605;SDS011;17371;51.328;3.860;2023-04-15T13:28:23;7.00;;;4.80;;
30605;SDS011;17371;51.328;3.860;2023-04-15T13:30:48;8.80;;;5.00;;
30605;SDS011;17371;51.328;3.860;2023-04-15T13:33:13;6.40;;;3.83;;
30605;SDS011;17371;51.328;3.860;2023-04-15T13:35:42;7.88;;;4.20;;
30605;SDS011;17371;51.328;3.860;2023-04-15T13:38:07;12.25;;;4.85;;
30605;SDS011;17371;51.328;3.860;2023-04-15T13:40:33;9.17;;;5.17;;
30605;SDS011;17371;51.328;3.860;2023-04-15T13:42:58;7.87;;;4.00;;
30605;SDS011;17371;51.328;3.860;2023-04-15T13:45:23;7.78;;;4.25;;
30605;SDS011;17371;51.328;3.860;2023-04-15T13:47:49;5.75;;;3.88;;
30605;SDS011;17371;51.328;3.860;2023-04-15T13:50:14;6.97;;;4.10;;
30605;SDS011;17371;51.328;3.860;2023-04-15T13:52:41;5.37;;;3.70;;
30605;SDS011;17371;51.328;3.860;2023-04-15T13:55:07;9.02;;;3.45;;
30605;SDS011;17371;51.328;3.860;2023-04-15T13:57:33;7.45;;;3.67;;
30605;SDS011;17371;51.328;3.860;2023-04-15T13:59:58;6.57;;;4.10;;
30605;SDS011;17371;51.328;3.860;2023-04-15T14:02:24;6.23;;;3.67;;
30605;SDS011;17371;51.328;3.860;2023-04-15T14:04:49;8.37;;;3.73;;
30605;SDS011;17371;51.328;3.860;2023-04-15T14:07:14;7.13;;;3.80;;
30605;SDS011;17371;51.328;3.860;2023-04-15T14:09:41;7.90;;;4.28;;
30605;SDS011;17371;51.328;3.860;2023-04-15T14:12:07;5.90;;;3.67;;
30605;SDS011;17371;51.328;3.860;2023-04-15T14:14:32;7.43;;;3.53;;
30605;SDS011;17371;51.328;3.860;2023-04-15T14:16:58;7.03;;;4.00;;
30605;SDS011;17371;51.328;3.860;2023-04-15T14:19:23;4.73;;;2.90;;
30605;SDS011;17371;51.328;3.860;2023-04-15T14:21:48;6.63;;;3.80;;
30605;SDS011;17371;51.328;3.860;2023-04-15T14:24:14;6.97;;;3.13;;
30605;SDS011;17371;51.328;3.860;2023-04-15T14:26:41;8.55;;;2.78;;
30605;SDS011;17371;51.328;3.860;2023-04-15T14:29:07;6.07;;;2.87;;
30605;SDS011;17371;51.328;3.860;2023-04-15T14:31:32;15.18;;;3.38;;
30605;SDS011;17371;51.328;3.860;2023-04-15T14:33:57;5.70;;;2.97;;